sensor_id;sensor_type;location;lat;lon;timestamp;P1;durP1;ratioP1;P2;durP2;ratioP2
8401;SDS011;4238;48.404;9.498;2023-03-01T00:01:11;15.30;;;11.77;;
8401;SDS011;4238;48.404;9.498;2023-03-01T00:03:41;17.57;;;11.30;;
8401;SDS011;4238;48.404;9.498;2023-03-01T00:06:08;16.40;;;11.40;;
8401;SDS011;4238;48.404;9.498;2023-03-01T00:08:36;18.53;;;11.77;;
8401;SDS011;4238;48.404;9.498;2023-03-01T00:11:04;17.37;;;12.03;;
8401;SDS011;4238;48.404;9.498;2023-03-01T00:13:33;14.07;;;11.27;;
8401;SDS011;4238;48.404;9.498;2023-03-01T00:16:01;15.43;;;11.33;;
8401;SDS011;4238;48.404;9.498;2023-03-01T00:18:30;17.67;;;12.07;;
8401;SDS011;4238;48.404;9.498;2023-03-01T00:20:58;17.47;;;12.30;;
8401;SDS011;4238;48.404;9.498;2023-03-01T00:23:25;15.00;;;11.20;;
8401;SDS011;4238;48.404;9.498;2023-03-01T00:25:52;14.97;;;11.60;;
8401;SDS011;4238;48.404;9.498;2023-03-01T00:28:19;16.23;;;11.60;;
8401;SDS011;4238;48.404;9.498;2023-03-01T00:30:46;15.03;;;11.20;;
8401;SDS011;4238;48.404;9.498;2023-03-01T00:33:14;16.27;;;11.97;;
8401;SDS011;4238;48.404;9.498;2023-03-01T00:35:42;14.70;;;11.70;;
8401;SDS011;4238;48.404;9.498;2023-03-01T00:38:09;13.83;;;11.20;;
8401;SDS011;4238;48.404;9.498;2023-03-01T00:40:36;16.80;;;11.70;;
8401;SDS011;4238;48.404;9.498;2023-03-01T00:43:03;16.47;;;12.37;;
8401;SDS011;4238;48.404;9.498;2023-03-01T00:45:31;13.90;;;11.37;;
8401;SDS011;4238;48.404;9.498;2023-03-01T00:47:59;16.73;;;12.73;;
8401;SDS011;4238;48.404;9.498;2023-03-01T00:50:26;15.50;;;11.37;;
8401;SDS011;4238;48.404;9.498;2023-03-01T00:52:54;20.27;;;12.73;;
8401;SDS011;4238;48.404;9.498;2023-03-01T00:55:21;16.80;;;11.47;;
8401;SDS011;4238;48.404;9.498;2023-03-01T00:57:48;15.60;;;12.27;;
8401;SDS011;4238;48.404;9.498;2023-03-01T01:00:16;17.17;;;12.30;;
8401;SDS011;4238;48.404;9.498;2023-03-01T01:02:43;18.03;;;12.57;;
8401;SDS011;4238;48.404;9.498;2023-03-01T01:05:10;18.50;;;12.83;;
8401;SDS011;4238;48.404;9.498;2023-03-01T01:07:38;17.03;;;12.17;;
8401;SDS011;4238;48.404;9.498;2023-03-01T01:10:07;18.90;;;13.47;;
8401;SDS011;4238;48.404;9.498;2023-03-01T01:12:37;17.60;;;13.10;;
8401;SDS011;4238;48.404;9.498;2023-03-01T01:15:05;18.57;;;12.73;;
8401;SDS011;4238;48.404;9.498;2023-03-01T01:17:32;18.37;;;12.40;;
8401;SDS011;4238;48.404;9.498;2023-03-01T01:19:59;17.90;;;12.97;;
8401;SDS011;4238;48.404;9.498;2023-03-01T01:22:26;16.53;;;13.57;;
8401;SDS011;4238;48.404;9.498;2023-03-01T01:24:53;18.87;;;12.40;;
8401;SDS011;4238;48.404;9.498;2023-03-01T01:27:21;19.10;;;13.17;;
8401;SDS011;4238;48.404;9.498;2023-03-01T01:29:48;18.43;;;13.07;;
8401;SDS011;4238;48.404;9.498;2023-03-01T01:32:15;19.40;;;13.17;;
8401;SDS011;4238;48.404;9.498;2023-03-01T01:34:42;17.77;;;12.73;;
8401;SDS011;4238;48.404;9.498;2023-03-01T01:37:09;15.93;;;12.37;;
8401;SDS011;4238;48.404;9.498;2023-03-01T01:39:35;19.33;;;12.70;;
8401;SDS011;4238;48.404;9.498;2023-03-01T01:42:02;19.40;;;13.43;;
8401;SDS011;4238;48.404;9.498;2023-03-01T01:44:33;19.70;;;13.50;;
8401;SDS011;4238;48.404;9.498;2023-03-01T01:47:00;19.87;;;14.00;;
8401;SDS011;4238;48.404;9.498;2023-03-01T01:49:31;16.37;;;13.70;;
8401;SDS011;4238;48.404;9.498;2023-03-01T01:52:06;19.50;;;13.53;;
8401;SDS011;4238;48.404;9.498;2023-03-01T01:54:38;16.17;;;13.83;;
8401;SDS011;4238;48.404;9.498;2023-03-01T01:57:14;18.23;;;13.90;;
8401;SDS011;4238;48.404;9.498;2023-03-01T01:59:49;20.60;;;13.20;;
8401;SDS011;4238;48.404;9.498;2023-03-01T02:02:18;18.13;;;13.53;;
8401;SDS011;4238;48.404;9.498;2023-03-01T02:04:46;21.60;;;14.40;;
8401;SDS011;4238;48.404;9.498;2023-03-01T02:07:16;18.40;;;13.43;;
8401;SDS011;4238;48.404;9.498;2023-03-01T02:09:46;21.57;;;14.70;;
8401;SDS011;4238;48.404;9.498;2023-03-01T02:12:14;17.77;;;12.57;;
8401;SDS011;4238;48.404;9.498;2023-03-01T02:14:42;19.63;;;14.47;;
8401;SDS011;4238;48.404;9.498;2023-03-01T02:17:11;18.60;;;13.93;;
8401;SDS011;4238;48.404;9.498;2023-03-01T02:19:43;19.03;;;13.80;;
8401;SDS011;4238;48.404;9.498;2023-03-01T02:22:24;18.20;;;13.23;;
8401;SDS011;4238;48.404;9.498;2023-03-01T02:24:57;20.30;;;14.03;;
8401;SDS011;4238;48.404;9.498;2023-03-01T02:27:36;22.23;;;13.70;;
8401;SDS011;4238;48.404;9.498;2023-03-01T02:30:13;19.80;;;13.63;;
8401;SDS011;4238;48.404;9.498;2023-03-01T02:32:40;18.93;;;13.67;;
8401;SDS011;4238;48.404;9.498;2023-03-01T02:35:08;19.13;;;13.80;;
8401;SDS011;4238;48.404;9.498;2023-03-01T02:37:37;19.77;;;14.30;;
8401;SDS011;4238;48.404;9.498;2023-03-01T02:40:06;18.90;;;14.03;;
8401;SDS011;4238;48.404;9.498;2023-03-01T02:42:40;17.90;;;12.93;;
8401;SDS011;4238;48.404;9.498;2023-03-01T02:45:13;19.23;;;13.20;;
8401;SDS011;4238;48.404;9.498;2023-03-01T02:47:40;21.40;;;13.93;;
8401;SDS011;4238;48.404;9.498;2023-03-01T02:50:11;17.53;;;13.23;;
8401;SDS011;4238;48.404;9.498;2023-03-01T02:52:52;21.37;;;14.23;;
8401;SDS011;4238;48.404;9.498;2023-03-01T02:55:23;19.33;;;13.03;;
8401;SDS011;4238;48.404;9.498;2023-03-01T02:57:50;19.00;;;13.63;;
8401;SDS011;4238;48.404;9.498;2023-03-01T03:00:20;19.60;;;13.13;;
8401;SDS011;4238;48.404;9.498;2023-03-01T03:02:50;22.20;;;14.40;;
8401;SDS011;4238;48.404;9.498;2023-03-01T03:05:19;21.03;;;14.37;;
8401;SDS011;4238;48.404;9.498;2023-03-01T03:07:48;18.57;;;12.97;;
8401;SDS011;4238;48.404;9.498;2023-03-01T03:10:17;19.17;;;14.23;;
8401;SDS011;4238;48.404;9.498;2023-03-01T03:12:48;19.00;;;13.53;;
8401;SDS011;4238;48.404;9.498;2023-03-01T03:15:15;19.23;;;14.80;;
8401;SDS011;4238;48.404;9.498;2023-03-01T03:17:44;18.07;;;13.20;;
8401;SDS011;4238;48.404;9.498;2023-03-01T03:20:12;21.00;;;15.67;;
8401;SDS011;4238;48.404;9.498;2023-03-01T03:22:44;19.97;;;14.57;;
8401;SDS011;4238;48.404;9.498;2023-03-01T03:25:12;23.53;;;14.00;;
8401;SDS011;4238;48.404;9.498;2023-03-01T03:27:39;19.63;;;13.97;;
8401;SDS011;4238;48.404;9.498;2023-03-01T03:30:09;19.17;;;14.07;;
8401;SDS011;4238;48.404;9.498;2023-03-01T03:32:37;19.33;;;13.80;;
8401;SDS011;4238;48.404;9.498;2023-03-01T03:35:07;18.30;;;13.23;;
8401;SDS011;4238;48.404;9.498;2023-03-01T03:37:36;18.53;;;13.80;;
8401;SDS011;4238;48.404;9.498;2023-03-01T03:40:21;21.30;;;14.53;;
8401;SDS011;4238;48.404;9.498;2023-03-01T03:42:47;22.17;;;13.17;;
8401;SDS011;4238;48.404;9.498;2023-03-01T03:45:14;20.83;;;14.10;;
8401;SDS011;4238;48.404;9.498;2023-03-01T03:47:41;18.27;;;13.77;;
8401;SDS011;4238;48.404;9.498;2023-03-01T03:50:10;19.50;;;14.17;;
8401;SDS011;4238;48.404;9.498;2023-03-01T03:52:39;17.03;;;13.23;;
8401;SDS011;4238;48.404;9.498;2023-03-01T03:55:07;17.60;;;13.23;;
8401;SDS011;4238;48.404;9.498;2023-03-01T03:57:36;16.57;;;13.40;;
8401;SDS011;4238;48.404;9.498;2023-03-01T04:00:04;18.73;;;12.57;;
8401;SDS011;4238;48.404;9.498;2023-03-01T04:02:37;21.63;;;13.40;;
8401;SDS011;4238;48.404;9.498;2023-03-01T04:05:05;18.60;;;14.10;;
8401;SDS011;4238;48.404;9.498;2023-03-01T04:07:35;19.53;;;13.57;;
8401;SDS011;4238;48.404;9.498;2023-03-01T04:10:02;17.60;;;13.13;;
8401;SDS011;4238;48.404;9.498;2023-03-01T04:12:31;17.37;;;12.50;;
8401;SDS011;4238;48.404;9.498;2023-03-01T04:14:59;18.17;;;13.53;;
8401;SDS011;4238;48.404;9.498;2023-03-01T04:17:26;18.43;;;13.23;;
8401;SDS011;4238;48.404;9.498;2023-03-01T04:19:52;17.50;;;13.07;;
8401;SDS011;4238;48.404;9.498;2023-03-01T04:22:19;18.50;;;13.57;;
8401;SDS011;4238;48.404;9.498;2023-03-01T04:24:48;17.67;;;12.47;;
8401;SDS011;4238;48.404;9.498;2023-03-01T04:27:14;18.40;;;13.33;;
8401;SDS011;4238;48.404;9.498;2023-03-01T04:29:41;17.03;;;12.50;;
8401;SDS011;4238;48.404;9.498;2023-03-01T04:32:08;17.43;;;12.70;;
8401;SDS011;4238;48.404;9.498;2023-03-01T04:34:35;19.67;;;13.30;;
8401;SDS011;4238;48.404;9.498;2023-03-01T04:37:02;17.33;;;13.43;;
8401;SDS011;4238;48.404;9.498;2023-03-01T04:39:29;22.03;;;14.47;;
8401;SDS011;4238;48.404;9.498;2023-03-01T04:41:57;17.30;;;12.93;;
8401;SDS011;4238;48.404;9.498;2023-03-01T04:44:24;17.67;;;13.47;;
8401;SDS011;4238;48.404;9.498;2023-03-01T04:46:51;17.70;;;12.93;;
8401;SDS011;4238;48.404;9.498;2023-03-01T04:49:18;18.83;;;13.10;;
8401;SDS011;4238;48.404;9.498;2023-03-01T04:51:45;21.43;;;13.73;;
8401;SDS011;4238;48.404;9.498;2023-03-01T04:54:12;21.03;;;14.77;;
8401;SDS011;4238;48.404;9.498;2023-03-01T04:56:38;19.47;;;14.23;;
8401;SDS011;4238;48.404;9.498;2023-03-01T04:59:07;23.43;;;13.70;;
8401;SDS011;4238;48.404;9.498;2023-03-01T05:01:35;17.73;;;13.37;;
8401;SDS011;4238;48.404;9.498;2023-03-01T05:04:02;20.00;;;13.67;;
8401;SDS011;4238;48.404;9.498;2023-03-01T05:06:30;19.43;;;13.73;;
8401;SDS011;4238;48.404;9.498;2023-03-01T05:08:57;17.33;;;13.33;;
8401;SDS011;4238;48.404;9.498;2023-03-01T05:11:24;19.70;;;14.47;;
8401;SDS011;4238;48.404;9.498;2023-03-01T05:13:53;18.63;;;14.03;;
8401;SDS011;4238;48.404;9.498;2023-03-01T05:16:21;19.33;;;14.67;;
8401;SDS011;4238;48.404;9.498;2023-03-01T05:18:48;19.13;;;13.00;;
8401;SDS011;4238;48.404;9.498;2023-03-01T05:21:16;18.00;;;12.53;;
8401;SDS011;4238;48.404;9.498;2023-03-01T05:23:43;20.30;;;13.43;;
8401;SDS011;4238;48.404;9.498;2023-03-01T05:26:11;19.93;;;13.30;;
8401;SDS011;4238;48.404;9.498;2023-03-01T05:28:39;16.73;;;12.47;;
8401;SDS011;4238;48.404;9.498;2023-03-01T05:31:06;18.63;;;13.53;;
8401;SDS011;4238;48.404;9.498;2023-03-01T05:33:36;18.37;;;13.30;;
8401;SDS011;4238;48.404;9.498;2023-03-01T05:36:03;19.60;;;13.67;;
8401;SDS011;4238;48.404;9.498;2023-03-01T05:38:31;19.47;;;12.97;;
8401;SDS011;4238;48.404;9.498;2023-03-01T05:40:58;19.40;;;13.00;;
8401;SDS011;4238;48.404;9.498;2023-03-01T05:43:24;19.57;;;13.17;;
8401;SDS011;4238;48.404;9.498;2023-03-01T05:45:51;18.97;;;12.77;;
8401;SDS011;4238;48.404;9.498;2023-03-01T05:48:18;17.77;;;12.77;;
8401;SDS011;4238;48.404;9.498;2023-03-01T05:50:47;17.80;;;13.13;;
8401;SDS011;4238;48.404;9.498;2023-03-01T05:53:15;19.77;;;12.57;;
8401;SDS011;4238;48.404;9.498;2023-03-01T05:55:43;20.80;;;13.80;;
8401;SDS011;4238;48.404;9.498;2023-03-01T05:58:13;21.00;;;14.23;;
8401;SDS011;4238;48.404;9.498;2023-03-01T06:00:41;19.17;;;13.93;;
8401;SDS011;4238;48.404;9.498;2023-03-01T06:03:09;20.87;;;14.07;;
8401;SDS011;4238;48.404;9.498;2023-03-01T06:05:37;24.43;;;13.50;;
8401;SDS011;4238;48.404;9.498;2023-03-01T06:08:06;18.00;;;12.87;;
8401;SDS011;4238;48.404;9.498;2023-03-01T06:10:35;21.43;;;14.80;;
8401;SDS011;4238;48.404;9.498;2023-03-01T06:13:02;21.90;;;14.30;;
8401;SDS011;4238;48.404;9.498;2023-03-01T06:15:30;19.40;;;14.03;;
8401;SDS011;4238;48.404;9.498;2023-03-01T06:17:57;26.13;;;17.50;;
8401;SDS011;4238;48.404;9.498;2023-03-01T06:20:24;24.30;;;16.67;;
8401;SDS011;4238;48.404;9.498;2023-03-01T06:22:52;24.60;;;18.23;;
8401;SDS011;4238;48.404;9.498;2023-03-01T06:25:21;19.23;;;13.40;;
8401;SDS011;4238;48.404;9.498;2023-03-01T06:27:49;24.55;;;20.15;;
8401;SDS011;4238;48.404;9.498;2023-03-01T06:30:17;22.60;;;15.67;;
8401;SDS011;4238;48.404;9.498;2023-03-01T06:32:45;21.43;;;16.07;;
8401;SDS011;4238;48.404;9.498;2023-03-01T06:35:13;21.10;;;13.80;;
8401;SDS011;4238;48.404;9.498;2023-03-01T06:37:42;19.63;;;15.47;;
8401;SDS011;4238;48.404;9.498;2023-03-01T06:40:10;17.83;;;14.27;;
8401;SDS011;4238;48.404;9.498;2023-03-01T06:42:40;21.23;;;15.10;;
8401;SDS011;4238;48.404;9.498;2023-03-01T06:45:08;20.20;;;14.87;;
8401;SDS011;4238;48.404;9.498;2023-03-01T06:47:36;19.13;;;13.47;;
8401;SDS011;4238;48.404;9.498;2023-03-01T06:50:03;20.83;;;14.37;;
8401;SDS011;4238;48.404;9.498;2023-03-01T06:52:31;19.07;;;14.33;;
8401;SDS011;4238;48.404;9.498;2023-03-01T06:54:58;18.60;;;13.83;;
8401;SDS011;4238;48.404;9.498;2023-03-01T06:57:25;20.70;;;14.70;;
8401;SDS011;4238;48.404;9.498;2023-03-01T06:59:53;19.70;;;13.70;;
8401;SDS011;4238;48.404;9.498;2023-03-01T07:02:20;21.50;;;15.33;;
8401;SDS011;4238;48.404;9.498;2023-03-01T07:04:48;20.07;;;15.07;;
8401;SDS011;4238;48.404;9.498;2023-03-01T07:07:15;26.07;;;17.47;;
8401;SDS011;4238;48.404;9.498;2023-03-01T07:09:43;24.40;;;17.40;;
8401;SDS011;4238;48.404;9.498;2023-03-01T07:12:10;27.40;;;18.53;;
8401;SDS011;4238;48.404;9.498;2023-03-01T07:14:37;23.03;;;16.27;;
8401;SDS011;4238;48.404;9.498;2023-03-01T07:17:06;21.60;;;14.97;;
8401;SDS011;4238;48.404;9.498;2023-03-01T07:19:33;23.40;;;14.97;;
8401;SDS011;4238;48.404;9.498;2023-03-01T07:22:00;19.27;;;14.13;;
8401;SDS011;4238;48.404;9.498;2023-03-01T07:24:29;21.80;;;14.77;;
8401;SDS011;4238;48.404;9.498;2023-03-01T07:26:56;22.17;;;15.47;;
8401;SDS011;4238;48.404;9.498;2023-03-01T07:29:23;22.80;;;15.63;;
8401;SDS011;4238;48.404;9.498;2023-03-01T07:31:49;21.90;;;14.57;;
8401;SDS011;4238;48.404;9.498;2023-03-01T07:34:18;21.07;;;15.57;;
8401;SDS011;4238;48.404;9.498;2023-03-01T07:36:45;19.00;;;14.63;;
8401;SDS011;4238;48.404;9.498;2023-03-01T07:39:12;21.43;;;14.73;;
8401;SDS011;4238;48.404;9.498;2023-03-01T07:41:39;21.93;;;15.07;;
8401;SDS011;4238;48.404;9.498;2023-03-01T07:44:06;19.13;;;15.20;;
8401;SDS011;4238;48.404;9.498;2023-03-01T07:46:33;24.13;;;14.90;;
8401;SDS011;4238;48.404;9.498;2023-03-01T07:48:59;18.63;;;14.00;;
8401;SDS011;4238;48.404;9.498;2023-03-01T07:51:28;19.80;;;14.10;;
8401;SDS011;4238;48.404;9.498;2023-03-01T07:53:55;19.93;;;13.47;;
8401;SDS011;4238;48.404;9.498;2023-03-01T07:56:21;24.40;;;15.07;;
8401;SDS011;4238;48.404;9.498;2023-03-01T07:58:48;17.93;;;12.43;;
8401;SDS011;4238;48.404;9.498;2023-03-01T08:01:16;21.23;;;14.10;;
8401;SDS011;4238;48.404;9.498;2023-03-01T08:03:44;18.47;;;12.67;;
8401;SDS011;4238;48.404;9.498;2023-03-01T08:06:12;19.70;;;13.73;;
8401;SDS011;4238;48.404;9.498;2023-03-01T08:08:41;22.07;;;15.57;;
8401;SDS011;4238;48.404;9.498;2023-03-01T08:11:10;18.23;;;14.40;;
8401;SDS011;4238;48.404;9.498;2023-03-01T08:13:38;21.47;;;15.47;;
8401;SDS011;4238;48.404;9.498;2023-03-01T08:16:07;22.33;;;15.13;;
8401;SDS011;4238;48.404;9.498;2023-03-01T08:18:34;23.97;;;14.57;;
8401;SDS011;4238;48.404;9.498;2023-03-01T08:21:02;18.47;;;12.67;;
8401;SDS011;4238;48.404;9.498;2023-03-01T08:23:30;18.63;;;12.87;;
8401;SDS011;4238;48.404;9.498;2023-03-01T08:26:04;21.60;;;14.47;;
8401;SDS011;4238;48.404;9.498;2023-03-01T08:28:33;24.07;;;14.73;;
8401;SDS011;4238;48.404;9.498;2023-03-01T08:30:59;20.20;;;13.20;;
8401;SDS011;4238;48.404;9.498;2023-03-01T08:33:26;22.80;;;15.10;;
8401;SDS011;4238;48.404;9.498;2023-03-01T08:36:01;22.57;;;13.97;;
8401;SDS011;4238;48.404;9.498;2023-03-01T08:38:29;22.13;;;14.57;;
8401;SDS011;4238;48.404;9.498;2023-03-01T08:40:58;25.47;;;14.83;;
8401;SDS011;4238;48.404;9.498;2023-03-01T08:43:28;25.37;;;15.33;;
8401;SDS011;4238;48.404;9.498;2023-03-01T08:45:55;21.93;;;14.90;;
8401;SDS011;4238;48.404;9.498;2023-03-01T08:48:22;20.80;;;14.17;;
8401;SDS011;4238;48.404;9.498;2023-03-01T08:50:50;22.10;;;15.03;;
8401;SDS011;4238;48.404;9.498;2023-03-01T08:53:17;20.93;;;14.47;;
8401;SDS011;4238;48.404;9.498;2023-03-01T08:55:44;22.87;;;15.30;;
8401;SDS011;4238;48.404;9.498;2023-03-01T08:58:11;19.63;;;13.97;;
8401;SDS011;4238;48.404;9.498;2023-03-01T09:00:39;23.37;;;14.77;;
8401;SDS011;4238;48.404;9.498;2023-03-01T09:03:06;22.50;;;14.67;;
8401;SDS011;4238;48.404;9.498;2023-03-01T09:05:33;22.03;;;15.57;;
8401;SDS011;4238;48.404;9.498;2023-03-01T09:08:01;19.10;;;14.30;;
8401;SDS011;4238;48.404;9.498;2023-03-01T09:10:28;22.87;;;14.77;;
8401;SDS011;4238;48.404;9.498;2023-03-01T09:12:55;26.90;;;15.37;;
8401;SDS011;4238;48.404;9.498;2023-03-01T09:15:22;19.07;;;14.27;;
8401;SDS011;4238;48.404;9.498;2023-03-01T09:17:50;20.43;;;14.57;;
8401;SDS011;4238;48.404;9.498;2023-03-01T09:20:17;16.67;;;13.43;;
8401;SDS011;4238;48.404;9.498;2023-03-01T09:22:44;21.87;;;14.60;;
8401;SDS011;4238;48.404;9.498;2023-03-01T09:25:12;20.60;;;13.63;;
8401;SDS011;4238;48.404;9.498;2023-03-01T09:27:38;23.50;;;15.33;;
8401;SDS011;4238;48.404;9.498;2023-03-01T09:30:06;23.30;;;14.63;;
8401;SDS011;4238;48.404;9.498;2023-03-01T09:32:34;18.90;;;13.73;;
8401;SDS011;4238;48.404;9.498;2023-03-01T09:35:02;20.67;;;14.13;;
8401;SDS011;4238;48.404;9.498;2023-03-01T09:37:32;16.40;;;12.70;;
8401;SDS011;4238;48.404;9.498;2023-03-01T09:40:00;18.77;;;14.30;;
8401;SDS011;4238;48.404;9.498;2023-03-01T09:42:28;21.60;;;15.17;;
8401;SDS011;4238;48.404;9.498;2023-03-01T09:44:59;25.13;;;16.30;;
8401;SDS011;4238;48.404;9.498;2023-03-01T09:47:30;25.50;;;16.97;;
8401;SDS011;4238;48.404;9.498;2023-03-01T09:50:02;25.77;;;17.10;;
8401;SDS011;4238;48.404;9.498;2023-03-01T09:52:37;32.20;;;21.10;;
8401;SDS011;4238;48.404;9.498;2023-03-01T09:55:08;25.93;;;16.70;;
8401;SDS011;4238;48.404;9.498;2023-03-01T09:57:41;26.33;;;15.97;;
8401;SDS011;4238;48.404;9.498;2023-03-01T10:00:18;18.23;;;14.20;;
8401;SDS011;4238;48.404;9.498;2023-03-01T10:02:55;20.37;;;14.63;;
8401;SDS011;4238;48.404;9.498;2023-03-01T10:05:34;24.57;;;15.73;;
8401;SDS011;4238;48.404;9.498;2023-03-01T10:10:56;24.93;;;15.23;;
8401;SDS011;4238;48.404;9.498;2023-03-01T10:13:25;24.53;;;15.67;;
8401;SDS011;4238;48.404;9.498;2023-03-01T10:15:56;24.13;;;16.00;;
8401;SDS011;4238;48.404;9.498;2023-03-01T10:18:28;20.03;;;14.67;;
8401;SDS011;4238;48.404;9.498;2023-03-01T10:20:59;18.77;;;12.60;;
8401;SDS011;4238;48.404;9.498;2023-03-01T10:23:28;24.37;;;15.40;;
8401;SDS011;4238;48.404;9.498;2023-03-01T10:26:12;24.43;;;16.17;;
8401;SDS011;4238;48.404;9.498;2023-03-01T10:28:49;23.57;;;16.37;;
8401;SDS011;4238;48.404;9.498;2023-03-01T10:31:28;20.70;;;14.37;;
8401;SDS011;4238;48.404;9.498;2023-03-01T10:34:04;21.53;;;15.20;;
8401;SDS011;4238;48.404;9.498;2023-03-01T10:36:37;22.50;;;16.37;;
8401;SDS011;4238;48.404;9.498;2023-03-01T10:39:10;20.20;;;14.57;;
8401;SDS011;4238;48.404;9.498;2023-03-01T10:41:45;21.33;;;14.53;;
8401;SDS011;4238;48.404;9.498;2023-03-01T10:47:16;20.23;;;15.37;;
8401;SDS011;4238;48.404;9.498;2023-03-01T10:49:56;20.83;;;14.70;;
8401;SDS011;4238;48.404;9.498;2023-03-01T10:52:27;21.77;;;14.03;;
8401;SDS011;4238;48.404;9.498;2023-03-01T10:54:57;20.93;;;16.10;;
8401;SDS011;4238;48.404;9.498;2023-03-01T10:57:36;20.20;;;15.23;;
8401;SDS011;4238;48.404;9.498;2023-03-01T11:00:16;20.87;;;15.93;;
8401;SDS011;4238;48.404;9.498;2023-03-01T11:02:48;22.90;;;16.33;;
8401;SDS011;4238;48.404;9.498;2023-03-01T11:05:18;22.03;;;15.90;;
8401;SDS011;4238;48.404;9.498;2023-03-01T11:07:50;23.83;;;16.70;;
8401;SDS011;4238;48.404;9.498;2023-03-01T11:10:19;22.27;;;16.00;;
8401;SDS011;4238;48.404;9.498;2023-03-01T11:12:48;20.80;;;14.10;;
8401;SDS011;4238;48.404;9.498;2023-03-01T11:15:20;21.23;;;15.43;;
8401;SDS011;4238;48.404;9.498;2023-03-01T11:17:49;19.97;;;15.23;;
8401;SDS011;4238;48.404;9.498;2023-03-01T11:20:18;19.43;;;13.93;;
8401;SDS011;4238;48.404;9.498;2023-03-01T11:22:54;20.20;;;15.27;;
8401;SDS011;4238;48.404;9.498;2023-03-01T11:25:24;22.67;;;15.20;;
8401;SDS011;4238;48.404;9.498;2023-03-01T11:27:53;21.67;;;15.80;;
8401;SDS011;4238;48.404;9.498;2023-03-01T11:30:22;18.90;;;14.27;;
8401;SDS011;4238;48.404;9.498;2023-03-01T11:32:54;19.17;;;15.90;;
8401;SDS011;4238;48.404;9.498;2023-03-01T11:35:29;19.63;;;14.80;;
8401;SDS011;4238;48.404;9.498;2023-03-01T11:38:09;20.53;;;15.07;;
8401;SDS011;4238;48.404;9.498;2023-03-01T11:40:44;20.00;;;14.17;;
8401;SDS011;4238;48.404;9.498;2023-03-01T11:43:18;18.93;;;14.43;;
8401;SDS011;4238;48.404;9.498;2023-03-01T11:48:52;17.10;;;12.63;;
8401;SDS011;4238;48.404;9.498;2023-03-01T11:51:36;15.17;;;13.07;;
8401;SDS011;4238;48.404;9.498;2023-03-01T11:54:20;19.07;;;14.23;;
8401;SDS011;4238;48.404;9.498;2023-03-01T11:56:57;19.60;;;14.10;;
8401;SDS011;4238;48.404;9.498;2023-03-01T11:59:51;17.07;;;14.17;;
8401;SDS011;4238;48.404;9.498;2023-03-01T12:02:39;16.87;;;13.63;;
8401;SDS011;4238;48.404;9.498;2023-03-01T12:05:44;15.27;;;12.00;;
8401;SDS011;4238;48.404;9.498;2023-03-01T12:08:24;16.53;;;12.90;;
8401;SDS011;4238;48.404;9.498;2023-03-01T12:11:00;17.40;;;13.03;;
8401;SDS011;4238;48.404;9.498;2023-03-01T12:13:43;14.17;;;12.60;;
8401;SDS011;4238;48.404;9.498;2023-03-01T12:16:28;16.23;;;12.47;;
8401;SDS011;4238;48.404;9.498;2023-03-01T12:19:10;16.77;;;13.40;;
8401;SDS011;4238;48.404;9.498;2023-03-01T12:21:53;16.17;;;13.20;;
8401;SDS011;4238;48.404;9.498;2023-03-01T12:27:48;18.13;;;13.13;;
8401;SDS011;4238;48.404;9.498;2023-03-01T12:30:29;17.20;;;13.00;;
8401;SDS011;4238;48.404;9.498;2023-03-01T12:33:09;15.53;;;13.00;;
8401;SDS011;4238;48.404;9.498;2023-03-01T12:38:48;15.10;;;12.60;;
8401;SDS011;4238;48.404;9.498;2023-03-01T12:41:21;14.90;;;13.03;;
8401;SDS011;4238;48.404;9.498;2023-03-01T12:44:06;17.43;;;12.90;;
8401;SDS011;4238;48.404;9.498;2023-03-01T12:46:50;16.47;;;12.93;;
8401;SDS011;4238;48.404;9.498;2023-03-01T12:49:28;21.10;;;14.47;;
8401;SDS011;4238;48.404;9.498;2023-03-01T12:52:00;17.63;;;14.47;;
8401;SDS011;4238;48.404;9.498;2023-03-01T12:54:35;16.93;;;13.00;;
8401;SDS011;4238;48.404;9.498;2023-03-01T12:57:03;18.70;;;13.90;;
8401;SDS011;4238;48.404;9.498;2023-03-01T12:59:42;17.03;;;13.73;;
8401;SDS011;4238;48.404;9.498;2023-03-01T13:02:33;17.57;;;13.77;;
8401;SDS011;4238;48.404;9.498;2023-03-01T13:05:10;16.70;;;13.93;;
8401;SDS011;4238;48.404;9.498;2023-03-01T13:08:01;21.30;;;15.30;;
8401;SDS011;4238;48.404;9.498;2023-03-01T13:10:39;17.07;;;13.47;;
8401;SDS011;4238;48.404;9.498;2023-03-01T13:13:14;17.27;;;14.27;;
8401;SDS011;4238;48.404;9.498;2023-03-01T13:15:47;16.33;;;13.27;;
8401;SDS011;4238;48.404;9.498;2023-03-01T13:18:31;17.43;;;13.80;;
8401;SDS011;4238;48.404;9.498;2023-03-01T13:21:00;19.13;;;15.10;;
8401;SDS011;4238;48.404;9.498;2023-03-01T13:23:30;18.63;;;15.20;;
8401;SDS011;4238;48.404;9.498;2023-03-01T13:26:04;19.37;;;13.70;;
8401;SDS011;4238;48.404;9.498;2023-03-01T13:37:28;15.33;;;13.73;;
8401;SDS011;4238;48.404;9.498;2023-03-01T13:40:01;18.07;;;13.33;;
8401;SDS011;4238;48.404;9.498;2023-03-01T13:42:38;18.13;;;13.47;;
8401;SDS011;4238;48.404;9.498;2023-03-01T13:45:24;16.03;;;13.77;;
8401;SDS011;4238;48.404;9.498;2023-03-01T13:48:01;15.37;;;12.77;;
8401;SDS011;4238;48.404;9.498;2023-03-01T13:50:33;15.07;;;13.10;;
8401;SDS011;4238;48.404;9.498;2023-03-01T13:53:12;15.50;;;13.77;;
8401;SDS011;4238;48.404;9.498;2023-03-01T13:55:44;17.80;;;13.90;;
8401;SDS011;4238;48.404;9.498;2023-03-01T13:58:19;15.50;;;13.53;;
8401;SDS011;4238;48.404;9.498;2023-03-01T14:00:54;15.30;;;13.27;;
8401;SDS011;4238;48.404;9.498;2023-03-01T14:03:24;14.33;;;12.30;;
8401;SDS011;4238;48.404;9.498;2023-03-01T14:05:59;16.50;;;12.83;;
8401;SDS011;4238;48.404;9.498;2023-03-01T14:08:29;15.87;;;11.90;;
8401;SDS011;4238;48.404;9.498;2023-03-01T14:11:05;19.27;;;13.23;;
8401;SDS011;4238;48.404;9.498;2023-03-01T14:14:05;15.30;;;12.13;;
8401;SDS011;4238;48.404;9.498;2023-03-01T14:16:55;18.20;;;12.27;;
8401;SDS011;4238;48.404;9.498;2023-03-01T14:19:32;16.10;;;12.67;;
8401;SDS011;4238;48.404;9.498;2023-03-01T14:22:03;15.83;;;13.17;;
8401;SDS011;4238;48.404;9.498;2023-03-01T14:24:39;14.77;;;12.30;;
8401;SDS011;4238;48.404;9.498;2023-03-01T14:27:12;15.50;;;12.73;;
8401;SDS011;4238;48.404;9.498;2023-03-01T14:29:39;13.50;;;12.10;;
8401;SDS011;4238;48.404;9.498;2023-03-01T14:32:11;16.47;;;12.50;;
8401;SDS011;4238;48.404;9.498;2023-03-01T14:34:45;15.50;;;13.43;;
8401;SDS011;4238;48.404;9.498;2023-03-01T14:37:18;13.53;;;11.10;;
8401;SDS011;4238;48.404;9.498;2023-03-01T14:39:46;16.07;;;13.30;;
8401;SDS011;4238;48.404;9.498;2023-03-01T14:42:14;17.20;;;13.67;;
8401;SDS011;4238;48.404;9.498;2023-03-01T14:44:42;15.27;;;12.47;;
8401;SDS011;4238;48.404;9.498;2023-03-01T14:47:11;15.57;;;12.37;;
8401;SDS011;4238;48.404;9.498;2023-03-01T14:49:40;15.90;;;13.70;;
8401;SDS011;4238;48.404;9.498;2023-03-01T14:52:17;14.57;;;12.33;;
8401;SDS011;4238;48.404;9.498;2023-03-01T14:54:47;17.23;;;13.30;;
8401;SDS011;4238;48.404;9.498;2023-03-01T14:57:16;17.57;;;13.77;;
8401;SDS011;4238;48.404;9.498;2023-03-01T14:59:46;16.43;;;13.27;;
8401;SDS011;4238;48.404;9.498;2023-03-01T15:02:16;16.67;;;13.40;;
8401;SDS011;4238;48.404;9.498;2023-03-01T15:04:45;15.87;;;13.20;;
8401;SDS011;4238;48.404;9.498;2023-03-01T15:07:14;16.17;;;12.53;;
8401;SDS011;4238;48.404;9.498;2023-03-01T15:09:43;17.30;;;12.77;;
8401;SDS011;4238;48.404;9.498;2023-03-01T15:15:20;16.73;;;13.13;;
8401;SDS011;4238;48.404;9.498;2023-03-01T15:18:02;18.97;;;13.90;;
8401;SDS011;4238;48.404;9.498;2023-03-01T15:20:31;16.20;;;13.43;;
8401;SDS011;4238;48.404;9.498;2023-03-01T15:23:01;16.70;;;13.70;;
8401;SDS011;4238;48.404;9.498;2023-03-01T15:25:30;16.60;;;13.57;;
8401;SDS011;4238;48.404;9.498;2023-03-01T15:27:59;15.57;;;12.50;;
8401;SDS011;4238;48.404;9.498;2023-03-01T15:30:29;16.47;;;13.50;;
8401;SDS011;4238;48.404;9.498;2023-03-01T15:35:56;18.57;;;14.90;;
8401;SDS011;4238;48.404;9.498;2023-03-01T15:38:28;16.50;;;13.77;;